sensor_id;sensor_type;location;lat;lon;timestamp;temperature;humidity
11617;DHT22;5864;52.998;9.068;2023-07-13T00:02:24;17.90;1.00
11617;DHT22;5864;52.998;9.068;2023-07-13T00:05:11;17.90;1.00
11617;DHT22;5864;52.998;9.068;2023-07-13T00:07:57;17.90;1.00
11617;DHT22;5864;52.998;9.068;2023-07-13T00:10:43;17.80;1.00
11617;DHT22;5864;52.998;9.068;2023-07-13T00:13:32;17.90;1.00
11617;DHT22;5864;52.998;9.068;2023-07-13T00:16:17;17.80;1.00
11617;DHT22;5864;52.998;9.068;2023-07-13T00:19:03;17.70;1.00
11617;DHT22;5864;52.998;9.068;2023-07-13T00:21:49;17.70;1.00
11617;DHT22;5864;52.998;9.068;2023-07-13T00:24:35;17.70;1.00
11617;DHT22;5864;52.998;9.068;2023-07-13T00:27:25;17.60;1.00
11617;DHT22;5864;52.998;9.068;2023-07-13T00:30:13;17.60;1.00
11617;DHT22;5864;52.998;9.068;2023-07-13T00:32:58;17.60;1.00
11617;DHT22;5864;52.998;9.068;2023-07-13T00:35:45;17.50;1.00
11617;DHT22;5864;52.998;9.068;2023-07-13T00:38:30;17.50;1.00
11617;DHT22;5864;52.998;9.068;2023-07-13T00:41:16;17.50;1.00
11617;DHT22;5864;52.998;9.068;2023-07-13T00:44:02;17.50;1.00
11617;DHT22;5864;52.998;9.068;2023-07-13T00:46:49;17.50;1.00
11617;DHT22;5864;52.998;9.068;2023-07-13T00:49:36;17.50;1.00
11617;DHT22;5864;52.998;9.068;2023-07-13T00:52:23;17.40;1.00
11617;DHT22;5864;52.998;9.068;2023-07-13T00:55:09;17.30;1.00
11617;DHT22;5864;52.998;9.068;2023-07-13T00:57:56;17.30;1.00
11617;DHT22;5864;52.998;9.068;2023-07-13T01:00:43;17.30;1.00
11617;DHT22;5864;52.998;9.068;2023-07-13T01:03:30;17.30;1.00
11617;DHT22;5864;52.998;9.068;2023-07-13T01:06:17;17.20;1.00
11617;DHT22;5864;52.998;9.068;2023-07-13T01:09:04;17.20;1.00
11617;DHT22;5864;52.998;9.068;2023-07-13T01:11:50;17.20;1.00
11617;DHT22;5864;52.998;9.068;2023-07-13T01:14:36;17.20;1.00
11617;DHT22;5864;52.998;9.068;2023-07-13T01:17:22;17.20;1.00
11617;DHT22;5864;52.998;9.068;2023-07-13T01:20:09;17.20;1.00
11617;DHT22;5864;52.998;9.068;2023-07-13T01:22:57;17.00;1.00
11617;DHT22;5864;52.998;9.068;2023-07-13T01:25:44;16.90;1.00
11617;DHT22;5864;52.998;9.068;2023-07-13T01:28:29;16.90;1.00
11617;DHT22;5864;52.998;9.068;2023-07-13T01:31:14;16.90;1.00
11617;DHT22;5864;52.998;9.068;2023-07-13T01:34:00;16.90;1.00
11617;DHT22;5864;52.998;9.068;2023-07-13T01:36:45;16.90;1.00
11617;DHT22;5864;52.998;9.068;2023-07-13T01:39:33;16.90;1.00
11617;DHT22;5864;52.998;9.068;2023-07-13T01:42:18;16.90;1.00
11617;DHT22;5864;52.998;9.068;2023-07-13T01:45:04;16.80;1.00
11617;DHT22;5864;52.998;9.068;2023-07-13T01:47:50;16.80;1.00
11617;DHT22;5864;52.998;9.068;2023-07-13T01:50:36;16.70;1.00
11617;DHT22;5864;52.998;9.068;2023-07-13T01:53:21;16.80;1.00
11617;DHT22;5864;52.998;9.068;2023-07-13T01:56:09;16.70;1.00
11617;DHT22;5864;52.998;9.068;2023-07-13T01:58:54;16.80;1.00
11617;DHT22;5864;52.998;9.068;2023-07-13T02:01:40;16.70;1.00
11617;DHT22;5864;52.998;9.068;2023-07-13T02:04:25;16.70;1.00
11617;DHT22;5864;52.998;9.068;2023-07-13T02:07:11;16.60;1.00
11617;DHT22;5864;52.998;9.068;2023-07-13T02:09:57;16.50;14.40
11617;DHT22;5864;52.998;9.068;2023-07-13T02:12:44;16.60;22.70
11617;DHT22;5864;52.998;9.068;2023-07-13T02:15:30;16.60;9.30
11617;DHT22;5864;52.998;9.068;2023-07-13T02:18:15;16.60;11.10
11617;DHT22;5864;52.998;9.068;2023-07-13T02:21:02;16.50;11.00
11617;DHT22;5864;52.998;9.068;2023-07-13T02:23:48;16.50;24.30
11617;DHT22;5864;52.998;9.068;2023-07-13T02:26:34;16.50;20.30
11617;DHT22;5864;52.998;9.068;2023-07-13T02:29:21;16.50;26.90
11617;DHT22;5864;52.998;9.068;2023-07-13T02:32:08;16.50;40.10
11617;DHT22;5864;52.998;9.068;2023-07-13T02:34:53;16.40;36.30
11617;DHT22;5864;52.998;9.068;2023-07-13T02:37:39;16.40;61.40
11617;DHT22;5864;52.998;9.068;2023-07-13T02:40:25;16.40;66.80
11617;DHT22;5864;52.998;9.068;2023-07-13T02:43:12;16.40;81.00
11617;DHT22;5864;52.998;9.068;2023-07-13T02:46:01;16.40;85.70
11617;DHT22;5864;52.998;9.068;2023-07-13T02:48:50;16.40;80.90
11617;DHT22;5864;52.998;9.068;2023-07-13T02:51:37;16.40;75.40
11617;DHT22;5864;52.998;9.068;2023-07-13T02:54:23;16.40;90.00
11617;DHT22;5864;52.998;9.068;2023-07-13T02:57:09;16.40;71.70
11617;DHT22;5864;52.998;9.068;2023-07-13T02:59:55;16.30;64.40
11617;DHT22;5864;52.998;9.068;2023-07-13T03:02:43;16.30;56.40
11617;DHT22;5864;52.998;9.068;2023-07-13T03:05:28;16.20;36.70
11617;DHT22;5864;52.998;9.068;2023-07-13T03:08:14;16.20;48.20
11617;DHT22;5864;52.998;9.068;2023-07-13T03:11:00;16.20;37.90
11617;DHT22;5864;52.998;9.068;2023-07-13T03:13:46;16.20;8.20
11617;DHT22;5864;52.998;9.068;2023-07-13T03:16:32;16.10;49.80
11617;DHT22;5864;52.998;9.068;2023-07-13T03:19:19;16.10;53.40
11617;DHT22;5864;52.998;9.068;2023-07-13T03:22:05;16.00;97.30
11617;DHT22;5864;52.998;9.068;2023-07-13T03:24:51;16.00;80.20
11617;DHT22;5864;52.998;9.068;2023-07-13T03:27:37;16.00;59.60
11617;DHT22;5864;52.998;9.068;2023-07-13T03:30:23;16.00;88.90
11617;DHT22;5864;52.998;9.068;2023-07-13T03:33:09;16.00;61.90
11617;DHT22;5864;52.998;9.068;2023-07-13T03:35:56;15.90;58.10
11617;DHT22;5864;52.998;9.068;2023-07-13T03:38:41;16.00;53.90
11617;DHT22;5864;52.998;9.068;2023-07-13T03:41:27;16.00;12.20
11617;DHT22;5864;52.998;9.068;2023-07-13T03:44:13;16.00;45.10
11617;DHT22;5864;52.998;9.068;2023-07-13T03:46:58;16.10;27.30
11617;DHT22;5864;52.998;9.068;2023-07-13T03:49:44;16.10;22.80
11617;DHT22;5864;52.998;9.068;2023-07-13T03:52:32;16.10;1.00
11617;DHT22;5864;52.998;9.068;2023-07-13T03:55:18;16.10;1.00
11617;DHT22;5864;52.998;9.068;2023-07-13T03:58:26;16.00;1.00
11617;DHT22;5864;52.998;9.068;2023-07-13T04:01:14;16.00;1.00
11617;DHT22;5864;52.998;9.068;2023-07-13T04:03:59;16.00;1.00
11617;DHT22;5864;52.998;9.068;2023-07-13T04:06:45;16.10;1.00
11617;DHT22;5864;52.998;9.068;2023-07-13T04:09:32;16.20;1.00
11617;DHT22;5864;52.998;9.068;2023-07-13T04:12:18;16.40;1.00
11617;DHT22;5864;52.998;9.068;2023-07-13T04:15:05;16.40;1.00
11617;DHT22;5864;52.998;9.068;2023-07-13T04:17:51;16.50;1.00
11617;DHT22;5864;52.998;9.068;2023-07-13T04:20:37;16.50;1.00
11617;DHT22;5864;52.998;9.068;2023-07-13T04:23:22;16.70;1.00
11617;DHT22;5864;52.998;9.068;2023-07-13T04:26:09;16.70;1.00
11617;DHT22;5864;52.998;9.068;2023-07-13T04:28:56;16.60;1.00
11617;DHT22;5864;52.998;9.068;2023-07-13T04:31:41;16.60;1.00
11617;DHT22;5864;52.998;9.068;2023-07-13T04:34:27;16.60;1.00
11617;DHT22;5864;52.998;9.068;2023-07-13T04:37:13;16.60;1.00
11617;DHT22;5864;52.998;9.068;2023-07-13T04:39:59;16.60;1.00
11617;DHT22;5864;52.998;9.068;2023-07-13T04:42:46;16.60;1.00
11617;DHT22;5864;52.998;9.068;2023-07-13T04:45:32;16.70;1.00
11617;DHT22;5864;52.998;9.068;2023-07-13T04:48:19;16.70;1.00
11617;DHT22;5864;52.998;9.068;2023-07-13T04:51:04;16.80;1.00
11617;DHT22;5864;52.998;9.068;2023-07-13T04:53:50;16.80;1.00
11617;DHT22;5864;52.998;9.068;2023-07-13T04:56:36;16.90;1.00
11617;DHT22;5864;52.998;9.068;2023-07-13T04:59:24;16.90;1.00
11617;DHT22;5864;52.998;9.068;2023-07-13T05:02:10;17.00;1.00
11617;DHT22;5864;52.998;9.068;2023-07-13T05:04:56;17.00;99.90
11617;DHT22;5864;52.998;9.068;2023-07-13T05:07:42;16.90;1.00
11617;DHT22;5864;52.998;9.068;2023-07-13T05:10:28;17.00;1.00
11617;DHT22;5864;52.998;9.068;2023-07-13T05:13:14;17.00;1.00
11617;DHT22;5864;52.998;9.068;2023-07-13T05:16:03;17.10;1.00
11617;DHT22;5864;52.998;9.068;2023-07-13T05:18:50;17.20;99.90
11617;DHT22;5864;52.998;9.068;2023-07-13T05:21:36;17.20;99.90
11617;DHT22;5864;52.998;9.068;2023-07-13T05:24:22;17.30;99.90
11617;DHT22;5864;52.998;9.068;2023-07-13T05:27:08;17.40;99.90
11617;DHT22;5864;52.998;9.068;2023-07-13T05:29:53;17.50;99.90
11617;DHT22;5864;52.998;9.068;2023-07-13T05:32:40;17.60;99.90
11617;DHT22;5864;52.998;9.068;2023-07-13T05:35:26;17.70;1.00
11617;DHT22;5864;52.998;9.068;2023-07-13T05:38:12;17.90;1.00
11617;DHT22;5864;52.998;9.068;2023-07-13T05:40:58;18.00;1.00
11617;DHT22;5864;52.998;9.068;2023-07-13T05:43:44;18.00;22.50
11617;DHT22;5864;52.998;9.068;2023-07-13T05:46:30;18.00;1.00
11617;DHT22;5864;52.998;9.068;2023-07-13T05:49:18;18.00;1.00
11617;DHT22;5864;52.998;9.068;2023-07-13T05:52:03;18.10;1.00
11617;DHT22;5864;52.998;9.068;2023-07-13T05:54:49;18.40;99.90
11617;DHT22;5864;52.998;9.068;2023-07-13T05:57:35;18.60;73.80
11617;DHT22;5864;52.998;9.068;2023-07-13T06:00:20;18.90;1.00
11617;DHT22;5864;52.998;9.068;2023-07-13T06:03:07;19.00;1.00
11617;DHT22;5864;52.998;9.068;2023-07-13T06:05:54;19.10;99.90
11617;DHT22;5864;52.998;9.068;2023-07-13T06:08:39;19.20;1.00
11617;DHT22;5864;52.998;9.068;2023-07-13T06:11:27;19.20;1.00
11617;DHT22;5864;52.998;9.068;2023-07-13T06:14:14;19.40;99.90
11617;DHT22;5864;52.998;9.068;2023-07-13T06:16:59;19.20;99.90
11617;DHT22;5864;52.998;9.068;2023-07-13T06:19:45;19.30;99.90
11617;DHT22;5864;52.998;9.068;2023-07-13T06:22:32;19.30;97.80
11617;DHT22;5864;52.998;9.068;2023-07-13T06:25:17;19.50;99.90
11617;DHT22;5864;52.998;9.068;2023-07-13T06:28:03;19.80;1.00
11617;DHT22;5864;52.998;9.068;2023-07-13T06:30:48;20.00;99.90
11617;DHT22;5864;52.998;9.068;2023-07-13T06:33:34;20.00;1.00
11617;DHT22;5864;52.998;9.068;2023-07-13T06:36:20;20.00;20.40
11617;DHT22;5864;52.998;9.068;2023-07-13T06:39:07;20.00;1.00
11617;DHT22;5864;52.998;9.068;2023-07-13T06:41:53;19.90;1.00
11617;DHT22;5864;52.998;9.068;2023-07-13T06:44:38;20.40;1.00
11617;DHT22;5864;52.998;9.068;2023-07-13T06:47:24;20.60;90.30
11617;DHT22;5864;52.998;9.068;2023-07-13T06:50:10;21.00;99.90
11617;DHT22;5864;52.998;9.068;2023-07-13T06:52:55;21.00;1.00
11617;DHT22;5864;52.998;9.068;2023-07-13T06:55:44;21.10;1.00
11617;DHT22;5864;52.998;9.068;2023-07-13T06:58:30;21.30;1.00
11617;DHT22;5864;52.998;9.068;2023-07-13T07:01:15;21.50;1.00
11617;DHT22;5864;52.998;9.068;2023-07-13T07:04:01;21.80;1.00
11617;DHT22;5864;52.998;9.068;2023-07-13T07:06:47;21.90;1.00
11617;DHT22;5864;52.998;9.068;2023-07-13T07:09:32;21.70;1.00
11617;DHT22;5864;52.998;9.068;2023-07-13T07:12:19;21.90;1.00
11617;DHT22;5864;52.998;9.068;2023-07-13T07:15:06;22.10;1.00
11617;DHT22;5864;52.998;9.068;2023-07-13T07:17:51;22.10;1.00
11617;DHT22;5864;52.998;9.068;2023-07-13T07:20:37;22.10;1.00
11617;DHT22;5864;52.998;9.068;2023-07-13T07:23:22;22.40;1.00
11617;DHT22;5864;52.998;9.068;2023-07-13T07:26:08;22.60;1.00
11617;DHT22;5864;52.998;9.068;2023-07-13T07:28:55;22.90;1.00
11617;DHT22;5864;52.998;9.068;2023-07-13T07:31:41;23.40;99.90
11617;DHT22;5864;52.998;9.068;2023-07-13T07:34:26;23.70;99.90
11617;DHT22;5864;52.998;9.068;2023-07-13T07:37:13;23.80;99.90
11617;DHT22;5864;52.998;9.068;2023-07-13T07:39:59;23.70;99.90
11617;DHT22;5864;52.998;9.068;2023-07-13T07:42:44;24.00;99.90
11617;DHT22;5864;52.998;9.068;2023-07-13T07:45:31;24.30;99.90
11617;DHT22;5864;52.998;9.068;2023-07-13T07:48:17;24.60;99.90
11617;DHT22;5864;52.998;9.068;2023-07-13T07:51:03;24.90;99.90
11617;DHT22;5864;52.998;9.068;2023-07-13T07:53:49;24.50;99.90
11617;DHT22;5864;52.998;9.068;2023-07-13T07:56:34;24.10;99.90
11617;DHT22;5864;52.998;9.068;2023-07-13T07:59:20;24.30;99.90
11617;DHT22;5864;52.998;9.068;2023-07-13T08:02:08;23.90;99.90
11617;DHT22;5864;52.998;9.068;2023-07-13T08:04:54;24.30;99.90
11617;DHT22;5864;52.998;9.068;2023-07-13T08:07:40;24.40;99.90
11617;DHT22;5864;52.998;9.068;2023-07-13T08:10:26;24.40;99.90
11617;DHT22;5864;52.998;9.068;2023-07-13T08:13:12;24.40;99.90
11617;DHT22;5864;52.998;9.068;2023-07-13T08:15:57;24.50;99.90
11617;DHT22;5864;52.998;9.068;2023-07-13T08:18:45;24.70;99.90
11617;DHT22;5864;52.998;9.068;2023-07-13T08:21:30;25.10;99.90
11617;DHT22;5864;52.998;9.068;2023-07-13T08:24:16;25.60;99.90
11617;DHT22;5864;52.998;9.068;2023-07-13T08:27:02;25.90;99.90
11617;DHT22;5864;52.998;9.068;2023-07-13T08:29:49;26.10;99.90
11617;DHT22;5864;52.998;9.068;2023-07-13T08:32:35;26.50;99.90
11617;DHT22;5864;52.998;9.068;2023-07-13T08:35:23;26.70;99.90
11617;DHT22;5864;52.998;9.068;2023-07-13T08:38:09;26.90;99.90
11617;DHT22;5864;52.998;9.068;2023-07-13T08:40:56;26.20;99.90
11617;DHT22;5864;52.998;9.068;2023-07-13T08:43:44;25.50;99.90
11617;DHT22;5864;52.998;9.068;2023-07-13T08:46:35;25.50;99.90
11617;DHT22;5864;52.998;9.068;2023-07-13T08:49:22;25.30;99.90
11617;DHT22;5864;52.998;9.068;2023-07-13T08:52:16;25.10;99.90
11617;DHT22;5864;52.998;9.068;2023-07-13T08:55:05;25.30;99.90
11617;DHT22;5864;52.998;9.068;2023-07-13T08:58:00;24.40;99.90
11617;DHT22;5864;52.998;9.068;2023-07-13T09:00:52;24.50;99.90
11617;DHT22;5864;52.998;9.068;2023-07-13T09:03:49;24.60;99.90
11617;DHT22;5864;52.998;9.068;2023-07-13T09:06:45;25.00;99.90
11617;DHT22;5864;52.998;9.068;2023-07-13T09:09:44;25.40;99.90
11617;DHT22;5864;52.998;9.068;2023-07-13T09:12:36;26.00;99.90
11617;DHT22;5864;52.998;9.068;2023-07-13T09:15:27;26.40;99.90
11617;DHT22;5864;52.998;9.068;2023-07-13T09:18:19;26.20;99.90
11617;DHT22;5864;52.998;9.068;2023-07-13T09:21:12;26.50;99.90
11617;DHT22;5864;52.998;9.068;2023-07-13T09:24:13;26.50;99.90
11617;DHT22;5864;52.998;9.068;2023-07-13T09:27:15;26.50;99.90
11617;DHT22;5864;52.998;9.068;2023-07-13T09:30:17;26.80;99.90
11617;DHT22;5864;52.998;9.068;2023-07-13T09:33:07;26.60;99.90
11617;DHT22;5864;52.998;9.068;2023-07-13T09:35:52;26.80;99.90
11617;DHT22;5864;52.998;9.068;2023-07-13T09:38:38;26.90;99.90
11617;DHT22;5864;52.998;9.068;2023-07-13T09:41:28;27.00;99.90
11617;DHT22;5864;52.998;9.068;2023-07-13T09:44:27;27.40;99.90
11617;DHT22;5864;52.998;9.068;2023-07-13T09:47:17;27.20;99.90
11617;DHT22;5864;52.998;9.068;2023-07-13T09:50:04;27.20;99.90
11617;DHT22;5864;52.998;9.068;2023-07-13T09:52:51;27.20;99.90
11617;DHT22;5864;52.998;9.068;2023-07-13T09:55:40;27.60;99.90
11617;DHT22;5864;52.998;9.068;2023-07-13T09:58:30;27.90;99.90
11617;DHT22;5864;52.998;9.068;2023-07-13T10:01:31;28.30;99.90
11617;DHT22;5864;52.998;9.068;2023-07-13T10:04:18;28.00;99.90
11617;DHT22;5864;52.998;9.068;2023-07-13T10:07:08;27.80;99.90
11617;DHT22;5864;52.998;9.068;2023-07-13T10:10:00;27.20;99.90
11617;DHT22;5864;52.998;9.068;2023-07-13T10:12:47;26.90;99.90
11617;DHT22;5864;52.998;9.068;2023-07-13T10:15:32;26.90;99.90
11617;DHT22;5864;52.998;9.068;2023-07-13T10:18:21;27.20;99.90
11617;DHT22;5864;52.998;9.068;2023-07-13T10:21:13;27.60;99.90
11617;DHT22;5864;52.998;9.068;2023-07-13T10:24:05;27.80;99.90
11617;DHT22;5864;52.998;9.068;2023-07-13T10:27:00;27.60;99.90
11617;DHT22;5864;52.998;9.068;2023-07-13T10:29:52;27.30;99.90
11617;DHT22;5864;52.998;9.068;2023-07-13T10:32:40;27.80;99.90
11617;DHT22;5864;52.998;9.068;2023-07-13T10:35:29;27.80;99.90
11617;DHT22;5864;52.998;9.068;2023-07-13T10:38:19;27.60;99.90
11617;DHT22;5864;52.998;9.068;2023-07-13T10:41:07;27.20;99.90
11617;DHT22;5864;52.998;9.068;2023-07-13T10:43:57;26.70;99.90
11617;DHT22;5864;52.998;9.068;2023-07-13T10:46:44;26.50;99.90
11617;DHT22;5864;52.998;9.068;2023-07-13T10:49:31;26.70;99.90
11617;DHT22;5864;52.998;9.068;2023-07-13T10:52:42;26.70;99.90
11617;DHT22;5864;52.998;9.068;2023-07-13T10:55:32;26.80;99.90
11617;DHT22;5864;52.998;9.068;2023-07-13T10:58:20;26.70;99.90
11617;DHT22;5864;52.998;9.068;2023-07-13T11:01:11;26.60;99.90
11617;DHT22;5864;52.998;9.068;2023-07-13T11:04:01;26.40;99.90
11617;DHT22;5864;52.998;9.068;2023-07-13T11:06:50;26.30;99.90
11617;DHT22;5864;52.998;9.068;2023-07-13T11:09:39;26.20;99.90
11617;DHT22;5864;52.998;9.068;2023-07-13T11:12:49;25.40;99.90
11617;DHT22;5864;52.998;9.068;2023-07-13T11:15:44;23.90;99.90
11617;DHT22;5864;52.998;9.068;2023-07-13T11:18:30;23.10;99.90
11617;DHT22;5864;52.998;9.068;2023-07-13T11:21:16;22.50;99.90
11617;DHT22;5864;52.998;9.068;2023-07-13T11:24:12;22.30;99.90
11617;DHT22;5864;52.998;9.068;2023-07-13T11:27:21;21.90;1.00
11617;DHT22;5864;52.998;9.068;2023-07-13T11:30:09;21.50;1.00
11617;DHT22;5864;52.998;9.068;2023-07-13T11:33:09;21.10;38.80
11617;DHT22;5864;52.998;9.068;2023-07-13T11:36:04;20.80;1.00
11617;DHT22;5864;52.998;9.068;2023-07-13T11:38:57;20.60;99.90
11617;DHT22;5864;52.998;9.068;2023-07-13T11:41:49;20.30;1.00
11617;DHT22;5864;52.998;9.068;2023-07-13T11:44:42;20.30;1.00
11617;DHT22;5864;52.998;9.068;2023-07-13T11:47:30;19.60;1.00
11617;DHT22;5864;52.998;9.068;2023-07-13T11:50:20;19.50;1.00
11617;DHT22;5864;52.998;9.068;2023-07-13T11:53:09;19.40;16.80
11617;DHT22;5864;52.998;9.068;2023-07-13T11:55:57;19.30;99.90
11617;DHT22;5864;52.998;9.068;2023-07-13T11:58:42;18.80;99.90
11617;DHT22;5864;52.998;9.068;2023-07-13T12:01:31;18.50;1.00
11617;DHT22;5864;52.998;9.068;2023-07-13T12:04:22;18.40;1.00
11617;DHT22;5864;52.998;9.068;2023-07-13T12:07:15;18.20;1.00
11617;DHT22;5864;52.998;9.068;2023-07-13T12:10:02;18.10;11.80
11617;DHT22;5864;52.998;9.068;2023-07-13T12:12:52;18.20;1.00
11617;DHT22;5864;52.998;9.068;2023-07-13T12:15:40;18.30;99.90
11617;DHT22;5864;52.998;9.068;2023-07-13T12:18:30;18.20;1.00
11617;DHT22;5864;52.998;9.068;2023-07-13T12:21:19;18.10;1.00
11617;DHT22;5864;52.998;9.068;2023-07-13T12:24:05;18.10;1.00
11617;DHT22;5864;52.998;9.068;2023-07-13T12:27:01;18.10;99.90
11617;DHT22;5864;52.998;9.068;2023-07-13T12:29:52;18.10;1.00
11617;DHT22;5864;52.998;9.068;2023-07-13T12:32:39;17.90;2.60
11617;DHT22;5864;52.998;9.068;2023-07-13T12:35:28;18.00;1.00
11617;DHT22;5864;52.998;9.068;2023-07-13T12:38:17;18.00;99.90
11617;DHT22;5864;52.998;9.068;2023-07-13T12:41:05;18.10;16.10
11617;DHT22;5864;52.998;9.068;2023-07-13T12:43:53;18.10;1.00
11617;DHT22;5864;52.998;9.068;2023-07-13T12:46:39;18.20;1.00
11617;DHT22;5864;52.998;9.068;2023-07-13T12:49:30;18.40;99.90
11617;DHT22;5864;52.998;9.068;2023-07-13T12:52:23;18.40;1.00
11617;DHT22;5864;52.998;9.068;2023-07-13T12:55:12;18.50;1.00
11617;DHT22;5864;52.998;9.068;2023-07-13T12:58:02;18.50;1.00
11617;DHT22;5864;52.998;9.068;2023-07-13T13:00:50;18.50;99.90
11617;DHT22;5864;52.998;9.068;2023-07-13T13:03:39;18.50;86.30
11617;DHT22;5864;52.998;9.068;2023-07-13T13:06:27;18.50;99.90
11617;DHT22;5864;52.998;9.068;2023-07-13T13:09:17;18.50;28.10
11617;DHT22;5864;52.998;9.068;2023-07-13T13:12:04;18.70;1.00
11617;DHT22;5864;52.998;9.068;2023-07-13T13:14:50;18.90;99.90
11617;DHT22;5864;52.998;9.068;2023-07-13T13:17:37;19.20;1.00
11617;DHT22;5864;52.998;9.068;2023-07-13T13:20:24;19.20;99.90
11617;DHT22;5864;52.998;9.068;2023-07-13T13:23:13;19.50;99.90
11617;DHT22;5864;52.998;9.068;2023-07-13T13:26:05;19.90;99.90
11617;DHT22;5864;52.998;9.068;2023-07-13T13:28:51;20.30;99.90
11617;DHT22;5864;52.998;9.068;2023-07-13T13:31:36;21.00;1.00
11617;DHT22;5864;52.998;9.068;2023-07-13T13:34:23;21.30;1.00
11617;DHT22;5864;52.998;9.068;2023-07-13T13:37:17;21.50;99.90
11617;DHT22;5864;52.998;9.068;2023-07-13T13:40:11;21.70;99.90
11617;DHT22;5864;52.998;9.068;2023-07-13T13:43:00;21.70;12.30
11617;DHT22;5864;52.998;9.068;2023-07-13T13:45:46;21.90;1.00
11617;DHT22;5864;52.998;9.068;2023-07-13T13:48:34;21.80;1.00
11617;DHT22;5864;52.998;9.068;2023-07-13T13:51:22;22.00;99.90
11617;DHT22;5864;52.998;9.068;2023-07-13T13:54:11;22.00;74.20
11617;DHT22;5864;52.998;9.068;2023-07-13T13:56:57;22.00;29.00
11617;DHT22;5864;52.998;9.068;2023-07-13T13:59:44;21.80;1.00
11617;DHT22;5864;52.998;9.068;2023-07-13T14:02:30;21.60;97.70
11617;DHT22;5864;52.998;9.068;2023-07-13T14:05:21;21.60;99.90
11617;DHT22;5864;52.998;9.068;2023-07-13T14:08:12;21.40;99.90
11617;DHT22;5864;52.998;9.068;2023-07-13T14:10:58;21.40;1.00
11617;DHT22;5864;52.998;9.068;2023-07-13T14:13:47;21.40;47.60
11617;DHT22;5864;52.998;9.068;2023-07-13T14:16:34;21.40;99.90
11617;DHT22;5864;52.998;9.068;2023-07-13T14:19:20;21.40;99.90
11617;DHT22;5864;52.998;9.068;2023-07-13T14:22:07;21.20;34.40
11617;DHT22;5864;52.998;9.068;2023-07-13T14:24:53;21.20;1.00
11617;DHT22;5864;52.998;9.068;2023-07-13T14:27:38;21.30;99.90
11617;DHT22;5864;52.998;9.068;2023-07-13T14:30:25;21.40;99.90
11617;DHT22;5864;52.998;9.068;2023-07-13T14:33:12;21.50;99.90
11617;DHT22;5864;52.998;9.068;2023-07-13T14:35:58;21.80;99.90
11617;DHT22;5864;52.998;9.068;2023-07-13T14:38:43;21.80;1.00
11617;DHT22;5864;52.998;9.068;2023-07-13T14:41:29;21.80;1.00
11617;DHT22;5864;52.998;9.068;2023-07-13T14:44:16;21.70;1.00
11617;DHT22;5864;52.998;9.068;2023-07-13T14:47:05;21.60;99.90
11617;DHT22;5864;52.998;9.068;2023-07-13T14:49:53;21.90;1.00
11617;DHT22;5864;52.998;9.068;2023-07-13T14:52:38;22.10;1.00
11617;DHT22;5864;52.998;9.068;2023-07-13T14:55:24;22.40;1.30
11617;DHT22;5864;52.998;9.068;2023-07-13T14:58:11;22.50;1.00
11617;DHT22;5864;52.998;9.068;2023-07-13T15:00:57;22.60;28.00
11617;DHT22;5864;52.998;9.068;2023-07-13T15:03:45;22.70;99.90
11617;DHT22;5864;52.998;9.068;2023-07-13T15:06:56;22.70;1.00
11617;DHT22;5864;52.998;9.068;2023-07-13T15:09:42;22.70;1.00
11617;DHT22;5864;52.998;9.068;2023-07-13T15:12:27;22.90;1.00
11617;DHT22;5864;52.998;9.068;2023-07-13T15:15:14;22.90;1.00
11617;DHT22;5864;52.998;9.068;2023-07-13T15:18:00;23.20;1.00
11617;DHT22;5864;52.998;9.068;2023-07-13T15:20:46;23.30;99.90
11617;DHT22;5864;52.998;9.068;2023-07-13T15:23:33;23.50;99.90
11617;DHT22;5864;52.998;9.068;2023-07-13T15:26:19;23.40;99.90
11617;DHT22;5864;52.998;9.068;2023-07-13T15:29:05;23.50;99.90
11617;DHT22;5864;52.998;9.068;2023-07-13T15:31:51;23.40;99.90
11617;DHT22;5864;52.998;9.068;2023-07-13T15:34:36;23.30;99.90
11617;DHT22;5864;52.998;9.068;2023-07-13T15:37:22;23.10;99.90
11617;DHT22;5864;52.998;9.068;2023-07-13T15:40:10;23.20;99.90
11617;DHT22;5864;52.998;9.068;2023-07-13T15:42:56;23.10;99.90
11617;DHT22;5864;52.998;9.068;2023-07-13T15:45:42;23.10;99.90
11617;DHT22;5864;52.998;9.068;2023-07-13T15:48:29;23.00;99.90
11617;DHT22;5864;52.998;9.068;2023-07-13T15:51:20;22.00;99.90
11617;DHT22;5864;52.998;9.068;2023-07-13T15:54:11;21.20;99.90
11617;DHT22;5864;52.998;9.068;2023-07-13T15:57:01;21.00;99.90
11617;DHT22;5864;52.998;9.068;2023-07-13T15:59:46;20.80;99.90
11617;DHT22;5864;52.998;9.068;2023-07-13T16:02:32;20.30;99.90
11617;DHT22;5864;52.998;9.068;2023-07-13T16:05:18;19.90;99.90
11617;DHT22;5864;52.998;9.068;2023-07-13T16:08:06;19.80;1.00
11617;DHT22;5864;52.998;9.068;2023-07-13T16:11:01;19.80;1.00
11617;DHT22;5864;52.998;9.068;2023-07-13T16:13:49;19.80;1.00
11617;DHT22;5864;52.998;9.068;2023-07-13T16:16:38;19.60;1.00
11617;DHT22;5864;52.998;9.068;2023-07-13T16:19:23;19.30;1.00
11617;DHT22;5864;52.998;9.068;2023-07-13T16:22:15;19.00;99.90
11617;DHT22;5864;52.998;9.068;2023-07-13T16:25:02;18.90;99.90
11617;DHT22;5864;52.998;9.068;2023-07-13T16:27:52;18.70;1.00
11617;DHT22;5864;52.998;9.068;2023-07-13T16:30:47;18.60;1.00
11617;DHT22;5864;52.998;9.068;2023-07-13T16:33:32;18.60;99.90
11617;DHT22;5864;52.998;9.068;2023-07-13T16:36:18;18.40;35.80
11617;DHT22;5864;52.998;9.068;2023-07-13T16:39:11;18.50;1.00
11617;DHT22;5864;52.998;9.068;2023-07-13T16:41:58;18.60;1.00
11617;DHT22;5864;52.998;9.068;2023-07-13T16:44:45;18.60;1.00
11617;DHT22;5864;52.998;9.068;2023-07-13T16:47:31;18.50;99.90
11617;DHT22;5864;52.998;9.068;2023-07-13T16:50:19;18.50;99.90
11617;DHT22;5864;52.998;9.068;2023-07-13T16:53:13;18.40;57.40
11617;DHT22;5864;52.998;9.068;2023-07-13T16:56:01;18.50;95.80
11617;DHT22;5864;52.998;9.068;2023-07-13T16:58:48;18.50;99.90
11617;DHT22;5864;52.998;9.068;2023-07-13T17:01:34;18.60;1.00
11617;DHT22;5864;52.998;9.068;2023-07-13T17:04:21;18.40;99.90
11617;DHT22;5864;52.998;9.068;2023-07-13T17:07:08;18.40;1.00
11617;DHT22;5864;52.998;9.068;2023-07-13T17:09:55;18.40;99.90
11617;DHT22;5864;52.998;9.068;2023-07-13T17:12:40;18.40;99.90
11617;DHT22;5864;52.998;9.068;2023-07-13T17:15:34;18.60;1.00
11617;DHT22;5864;52.998;9.068;2023-07-13T17:18:19;18.70;99.90
11617;DHT22;5864;52.998;9.068;2023-07-13T17:21:12;18.80;99.90
11617;DHT22;5864;52.998;9.068;2023-07-13T17:23:58;18.80;99.90
11617;DHT22;5864;52.998;9.068;2023-07-13T17:26:43;18.90;99.90
11617;DHT22;5864;52.998;9.068;2023-07-13T17:29:29;18.80;99.90
11617;DHT22;5864;52.998;9.068;2023-07-13T17:32:18;18.90;1.00
11617;DHT22;5864;52.998;9.068;2023-07-13T17:35:17;18.80;99.90
11617;DHT22;5864;52.998;9.068;2023-07-13T17:38:06;18.80;99.90
11617;DHT22;5864;52.998;9.068;2023-07-13T17:40:51;18.70;99.90
11617;DHT22;5864;52.998;9.068;2023-07-13T17:43:37;18.90;99.90
11617;DHT22;5864;52.998;9.068;2023-07-13T17:46:26;19.00;99.90
11617;DHT22;5864;52.998;9.068;2023-07-13T17:49:17;19.00;99.90
11617;DHT22;5864;52.998;9.068;2023-07-13T17:52:04;19.00;1.00
11617;DHT22;5864;52.998;9.068;2023-07-13T17:54:52;19.00;1.00
11617;DHT22;5864;52.998;9.068;2023-07-13T17:57:38;19.00;99.90
11617;DHT22;5864;52.998;9.068;2023-07-13T18:00:23;19.10;1.00
11617;DHT22;5864;52.998;9.068;2023-07-13T18:03:15;19.30;1.00
11617;DHT22;5864;52.998;9.068;2023-07-13T18:06:03;19.30;1.00